createdAt,value
2019-01-12T00:01:35.567Z,6.40
2019-01-12T00:04:06.916Z,6.40
2019-01-12T00:06:38.089Z,6.40
2019-01-12T00:09:12.522Z,6.30
2019-01-12T00:11:43.708Z,6.30
2019-01-12T00:14:16.934Z,6.30
2019-01-12T00:16:48.191Z,6.30
2019-01-12T00:19:25.366Z,6.30
2019-01-12T00:21:56.719Z,6.30
2019-01-12T00:24:31.489Z,6.30
2019-01-12T00:27:00.867Z,6.30
2019-01-12T00:29:32.032Z,6.30
2019-01-12T00:32:03.329Z,6.30
2019-01-12T00:34:34.622Z,6.40
2019-01-12T00:37:05.932Z,6.40
2019-01-12T00:39:37.068Z,6.30
2019-01-12T00:42:08.341Z,6.30
2019-01-12T00:44:39.602Z,6.30
2019-01-12T00:47:12.987Z,6.30
2019-01-12T00:49:43.972Z,6.30
2019-01-12T00:52:15.217Z,6.20
2019-01-12T00:54:46.477Z,6.20
2019-01-12T00:57:17.773Z,6.10
2019-01-12T00:59:49.067Z,6.10
2019-01-12T01:02:20.394Z,6.10
2019-01-12T01:04:51.641Z,6.10
2019-01-12T01:07:22.866Z,6.20
2019-01-12T01:09:54.064Z,6.20
2019-01-12T01:12:25.395Z,6.20
2019-01-12T01:14:56.713Z,6.20
2019-01-12T01:17:27.953Z,6.20
2019-01-12T01:19:59.169Z,6.10
2019-01-12T01:22:30.458Z,6.20
2019-01-12T01:25:01.674Z,6.20
2019-01-12T01:27:32.960Z,6.20
2019-01-12T01:30:05.492Z,6.20
2019-01-12T01:32:36.775Z,6.20
2019-01-12T01:35:08.399Z,6.20
2019-01-12T01:37:39.613Z,6.20
2019-01-12T01:40:15.221Z,6.20
2019-01-12T01:42:46.587Z,6.20
2019-01-12T01:45:19.175Z,6.20
2019-01-12T01:47:50.452Z,6.20
2019-01-12T01:50:21.686Z,6.20
2019-01-12T01:52:52.944Z,6.30
2019-01-12T01:55:24.205Z,6.30
2019-01-12T01:57:55.386Z,6.20
2019-01-12T02:00:26.700Z,6.20
2019-01-12T02:02:57.936Z,6.20
2019-01-12T02:05:29.179Z,6.20
2019-01-12T02:08:00.377Z,6.20
2019-01-12T02:10:31.623Z,6.20
2019-01-12T02:13:02.799Z,6.20
2019-01-12T02:15:34.041Z,6.30
2019-01-12T02:18:05.644Z,6.30
2019-01-12T02:20:36.831Z,6.30
2019-01-12T02:23:08.080Z,6.30
2019-01-12T02:25:39.314Z,6.30
2019-01-12T02:28:10.567Z,6.20
2019-01-12T02:30:41.872Z,6.20
2019-01-12T02:33:13.149Z,6.20
2019-01-12T02:35:44.415Z,6.20
2019-01-12T02:38:15.696Z,6.20
2019-01-12T02:40:46.964Z,6.20
2019-01-12T02:43:18.520Z,6.10
2019-01-12T02:45:49.890Z,6.20
2019-01-12T02:48:21.131Z,6.20
2019-01-12T02:50:52.390Z,6.20
2019-01-12T02:53:23.742Z,6.10
2019-01-12T02:55:54.914Z,6.00
2019-01-12T02:58:26.150Z,6.10
2019-01-12T03:00:57.328Z,6.10
2019-01-12T03:03:28.562Z,6.10
2019-01-12T03:05:59.834Z,6.10
2019-01-12T03:08:31.158Z,6.10
2019-01-12T03:11:02.449Z,6.00
2019-01-12T03:13:42.604Z,6.10
2019-01-12T03:16:13.993Z,6.10
2019-01-12T03:18:45.236Z,6.10
2019-01-12T03:21:16.526Z,6.10
2019-01-12T03:23:47.673Z,6.10
2019-01-12T03:26:18.871Z,6.10
2019-01-12T03:28:50.101Z,6.10
2019-01-12T03:31:21.416Z,6.10
2019-01-12T03:33:52.748Z,6.10
2019-01-12T03:36:24.122Z,6.10
2019-01-12T03:38:55.297Z,6.10
2019-01-12T03:41:26.604Z,6.10
2019-01-12T03:43:57.828Z,6.10
2019-01-12T03:46:29.086Z,6.10
2019-01-12T03:49:00.334Z,6.10
2019-01-12T03:51:31.585Z,6.10
2019-01-12T03:54:02.742Z,6.00
2019-01-12T03:56:33.940Z,6.00
2019-01-12T03:59:05.393Z,6.10
2019-01-12T04:01:36.618Z,6.10
2019-01-12T04:04:07.782Z,6.10
2019-01-12T04:06:39.033Z,6.10
2019-01-12T04:09:11.459Z,6.20
2019-01-12T04:11:42.691Z,6.10
2019-01-12T04:14:13.950Z,6.10
2019-01-12T04:16:45.245Z,6.10
2019-01-12T04:19:16.470Z,6.10
2019-01-12T04:21:47.726Z,6.10
2019-01-12T04:24:18.966Z,6.10
2019-01-12T04:26:50.154Z,6.10
2019-01-12T04:29:21.414Z,6.00
2019-01-12T04:31:52.647Z,6.00
2019-01-12T04:34:23.791Z,6.00
2019-01-12T04:36:54.984Z,6.00
2019-01-12T04:39:26.218Z,6.00
2019-01-12T04:41:57.512Z,5.90
2019-01-12T04:44:28.723Z,5.90
2019-01-12T04:46:59.989Z,5.90
2019-01-12T04:49:31.209Z,5.80
2019-01-12T04:52:02.438Z,5.80
2019-01-12T04:54:33.648Z,5.90
2019-01-12T04:57:04.969Z,5.90
2019-01-12T04:59:36.177Z,5.80
2019-01-12T05:02:07.461Z,5.80
2019-01-12T05:04:38.708Z,5.80
2019-01-12T05:07:09.998Z,5.80
2019-01-12T05:09:41.135Z,5.80
2019-01-12T05:12:12.411Z,5.80
2019-01-12T05:14:43.752Z,5.80
2019-01-12T05:17:15.058Z,5.80
2019-01-12T05:19:46.429Z,5.80
2019-01-12T05:22:17.624Z,5.90
2019-01-12T05:24:48.901Z,5.80
2019-01-12T05:27:20.178Z,5.80
2019-01-12T05:29:51.465Z,5.80
2019-01-12T05:32:41.687Z,5.80
2019-01-12T05:35:12.959Z,5.80
2019-01-12T05:37:44.210Z,5.80
2019-01-12T05:40:15.766Z,5.80
2019-01-12T05:42:47.019Z,5.70
2019-01-12T05:45:18.377Z,5.70
2019-01-12T05:47:49.632Z,5.70
2019-01-12T05:50:20.919Z,5.70
2019-01-12T05:52:52.189Z,5.70
2019-01-12T05:55:23.395Z,5.80
2019-01-12T05:57:54.592Z,5.80
2019-01-12T06:00:26.236Z,5.70
2019-01-12T06:02:57.508Z,5.70
2019-01-12T06:05:28.663Z,5.70
2019-01-12T06:07:59.925Z,5.70
2019-01-12T06:10:31.136Z,5.70
2019-01-12T06:13:02.423Z,5.70
2019-01-12T06:15:33.635Z,5.70
2019-01-12T06:18:04.924Z,5.70
2019-01-12T06:20:36.084Z,5.70
2019-01-12T06:23:07.362Z,5.80
2019-01-12T06:25:38.583Z,5.70
2019-01-12T06:28:09.875Z,5.70
2019-01-12T06:30:41.102Z,5.70
2019-01-12T06:33:12.350Z,5.80
2019-01-12T06:35:43.657Z,5.70
2019-01-12T06:38:14.889Z,5.70
2019-01-12T06:40:46.155Z,5.70
2019-01-12T06:43:17.399Z,5.70
2019-01-12T06:45:48.648Z,5.70
2019-01-12T06:48:19.887Z,5.70
2019-01-12T06:50:51.171Z,5.70
2019-01-12T06:53:22.301Z,5.70
2019-01-12T06:55:53.595Z,5.70
2019-01-12T06:58:24.827Z,5.70
2019-01-12T07:00:56.061Z,5.70
2019-01-12T07:03:27.181Z,5.70
2019-01-12T07:05:58.445Z,5.70
2019-01-12T07:08:29.605Z,5.70
2019-01-12T07:11:00.789Z,5.60
2019-01-12T07:13:32.017Z,5.60
2019-01-12T07:16:03.239Z,5.60
2019-01-12T07:18:34.477Z,5.70
2019-01-12T07:21:05.753Z,5.60
2019-01-12T07:23:37.037Z,5.60
2019-01-12T07:26:08.305Z,5.60
2019-01-12T07:28:39.588Z,5.70
2019-01-12T07:31:11.209Z,5.70
2019-01-12T07:33:42.518Z,5.70
2019-01-12T07:36:13.803Z,5.60
2019-01-12T07:38:46.418Z,5.70
2019-01-12T07:41:17.679Z,5.70
2019-01-12T07:43:48.955Z,5.80
2019-01-12T07:46:29.518Z,5.80
2019-01-12T07:49:00.698Z,5.80
2019-01-12T07:51:32.041Z,5.70
2019-01-12T07:54:03.254Z,5.70
2019-01-12T07:56:34.516Z,5.70
2019-01-12T07:59:05.679Z,5.70
2019-01-12T08:01:36.933Z,5.60
2019-01-12T08:04:08.134Z,5.60
2019-01-12T08:06:39.422Z,5.70
2019-01-12T08:09:11.525Z,5.70
2019-01-12T08:11:42.811Z,5.70
2019-01-12T08:14:14.015Z,5.70
2019-01-12T08:16:45.217Z,5.70
2019-01-12T08:19:16.507Z,5.70
2019-01-12T08:21:47.808Z,5.70
2019-01-12T08:24:18.962Z,5.70
2019-01-12T08:26:55.701Z,5.70
2019-01-12T08:29:26.953Z,5.80
2019-01-12T08:31:58.254Z,5.80
2019-01-12T08:34:29.556Z,5.90
2019-01-12T08:37:00.877Z,5.90
2019-01-12T08:39:32.188Z,5.90
2019-01-12T08:42:03.510Z,5.80
2019-01-12T08:44:34.819Z,5.80
2019-01-12T08:47:06.099Z,5.80
2019-01-12T08:49:37.373Z,5.80
2019-01-12T08:52:08.718Z,5.80
2019-01-12T08:54:40.062Z,5.90
2019-01-12T08:57:13.091Z,5.90
2019-01-12T08:59:44.356Z,5.90
2019-01-12T09:02:15.665Z,5.90
2019-01-12T09:04:46.954Z,5.90
2019-01-12T09:07:18.232Z,5.90
2019-01-12T09:09:49.510Z,6.00
2019-01-12T09:12:21.250Z,6.00
2019-01-12T09:14:52.529Z,6.10
2019-01-12T09:17:23.830Z,6.10
2019-01-12T09:19:55.277Z,6.10
2019-01-12T09:22:26.614Z,6.10
2019-01-12T09:24:57.891Z,6.10
2019-01-12T09:27:29.194Z,6.00
2019-01-12T09:30:00.787Z,6.00
2019-01-12T09:32:38.478Z,6.10
2019-01-12T09:35:10.180Z,6.10
2019-01-12T09:37:41.544Z,6.20
2019-01-12T09:40:16.226Z,6.20
2019-01-12T09:42:47.941Z,6.30
2019-01-12T09:45:20.335Z,6.40
2019-01-12T09:47:51.842Z,6.40
2019-01-12T09:50:24.441Z,6.40
2019-01-12T09:52:55.689Z,6.40
2019-01-12T09:55:26.930Z,6.30
2019-01-12T09:57:58.228Z,6.30
2019-01-12T10:00:29.829Z,6.20
2019-01-12T10:03:01.079Z,6.20
2019-01-12T10:05:32.257Z,6.30
2019-01-12T10:08:03.519Z,6.30
2019-01-12T10:10:34.712Z,6.30
2019-01-12T10:13:06.047Z,6.30
2019-01-12T10:15:37.301Z,6.30
2019-01-12T10:18:08.528Z,6.20
2019-01-12T10:20:39.934Z,6.20
2019-01-12T10:23:11.218Z,6.30
2019-01-12T10:25:42.493Z,6.20
2019-01-12T10:28:13.764Z,6.20
2019-01-12T10:30:44.958Z,6.30
2019-01-12T10:33:16.203Z,6.30
2019-01-12T10:35:47.498Z,6.30
2019-01-12T10:38:18.940Z,6.40
2019-01-12T10:40:50.152Z,6.30
2019-01-12T10:43:21.484Z,6.40
2019-01-12T10:45:52.798Z,6.40
2019-01-12T10:48:24.382Z,6.40
2019-01-12T10:50:55.721Z,6.40
2019-01-12T10:53:26.955Z,6.40
2019-01-12T10:55:58.250Z,6.30
2019-01-12T10:58:29.492Z,6.30
2019-01-12T11:01:00.754Z,6.20
2019-01-12T11:03:31.988Z,6.10
2019-01-12T11:06:03.298Z,6.00
2019-01-12T11:08:34.531Z,6.00
2019-01-12T11:11:06.050Z,5.90
2019-01-12T11:13:37.210Z,5.90
2019-01-12T11:16:08.612Z,5.80
2019-01-12T11:18:39.871Z,5.80
2019-01-12T11:21:11.115Z,5.80
2019-01-12T11:23:42.308Z,5.80
2019-01-12T11:26:13.524Z,5.80
2019-01-12T11:28:44.731Z,5.70
2019-01-12T11:31:19.761Z,5.70
2019-01-12T11:33:48.841Z,5.70
2019-01-12T11:36:20.188Z,5.80
2019-01-12T11:38:51.456Z,5.80
2019-01-12T11:41:22.635Z,5.70
2019-01-12T11:43:53.778Z,5.70
2019-01-12T11:46:24.953Z,5.80
2019-01-12T11:48:56.273Z,5.70
2019-01-12T11:51:27.523Z,5.70
2019-01-12T11:53:58.744Z,5.70
2019-01-12T11:56:30.033Z,5.70
2019-01-12T11:59:01.316Z,5.70
2019-01-12T12:01:32.587Z,5.70
2019-01-12T12:04:03.847Z,5.70
2019-01-12T12:06:35.188Z,5.70
2019-01-12T12:09:09.390Z,5.70
2019-01-12T12:11:40.659Z,5.70
2019-01-12T12:14:11.818Z,5.70
2019-01-12T12:16:43.041Z,5.80
2019-01-12T12:19:14.242Z,5.80
2019-01-12T12:21:45.670Z,5.80
2019-01-12T12:24:16.920Z,5.80
2019-01-12T12:26:48.117Z,5.80
2019-01-12T12:29:19.356Z,5.80
2019-01-12T12:31:50.623Z,5.80
2019-01-12T12:34:21.778Z,5.80
2019-01-12T12:36:53.183Z,5.80
2019-01-12T12:39:24.597Z,5.80
2019-01-12T12:41:55.873Z,5.80
2019-01-12T12:44:27.153Z,5.80
2019-01-12T12:46:58.703Z,5.90
2019-01-12T12:49:30.024Z,5.90
2019-01-12T12:52:01.388Z,6.00
2019-01-12T12:54:32.646Z,6.00
2019-01-12T12:57:03.856Z,6.00
2019-01-12T12:59:35.130Z,6.00
2019-01-12T13:02:06.381Z,6.10
2019-01-12T13:04:37.673Z,6.10
2019-01-12T13:07:08.929Z,6.00
2019-01-12T13:09:40.313Z,6.00
2019-01-12T13:12:12.203Z,6.10
2019-01-12T13:14:43.444Z,6.00
2019-01-12T13:17:14.983Z,6.10
2019-01-12T13:19:46.589Z,6.10
2019-01-12T13:22:17.924Z,6.10
2019-01-12T13:24:49.190Z,6.10
2019-01-12T13:27:20.484Z,6.20
2019-01-12T13:29:51.855Z,6.20
2019-01-12T13:32:23.251Z,6.20
2019-01-12T13:34:54.590Z,6.20
2019-01-12T13:37:25.797Z,6.20
2019-01-12T13:39:56.993Z,6.30
2019-01-12T13:42:28.352Z,6.30
2019-01-12T13:44:59.616Z,6.30
2019-01-12T13:47:30.895Z,6.30
2019-01-12T13:50:02.139Z,6.30
2019-01-12T13:52:33.395Z,6.30
2019-01-12T13:55:05.514Z,6.40
2019-01-12T13:57:37.105Z,6.40
2019-01-12T14:00:31.995Z,6.40
2019-01-12T14:03:03.478Z,6.50
2019-01-12T14:05:34.983Z,6.40
2019-01-12T14:08:08.062Z,6.50
2019-01-12T14:10:39.392Z,6.50
2019-01-12T14:13:11.051Z,6.50
2019-01-12T14:15:42.654Z,6.60
2019-01-12T14:18:13.969Z,6.60
2019-01-12T14:20:45.400Z,6.60
2019-01-12T14:23:20.820Z,6.60
2019-01-12T14:25:52.174Z,6.70
2019-01-12T14:28:23.411Z,6.70
2019-01-12T14:30:55.287Z,6.70
2019-01-12T14:33:26.533Z,6.70
2019-01-12T14:35:57.820Z,6.70
2019-01-12T14:38:29.096Z,6.70
2019-01-12T14:41:00.373Z,6.70
2019-01-12T14:43:31.700Z,6.70
2019-01-12T14:46:03.074Z,6.70
2019-01-12T14:48:34.367Z,6.80
2019-01-12T14:51:07.260Z,6.80
2019-01-12T14:53:38.748Z,6.70
2019-01-12T14:56:10.103Z,6.70
2019-01-12T14:58:41.427Z,6.70
2019-01-12T15:01:12.716Z,6.80
2019-01-12T15:03:43.938Z,6.80
2019-01-12T15:06:15.632Z,6.70
2019-01-12T15:08:47.018Z,6.70
2019-01-12T15:11:18.347Z,6.70
2019-01-12T15:13:49.578Z,6.70
2019-01-12T15:16:20.760Z,6.70
2019-01-12T15:18:52.019Z,6.70
2019-01-12T15:21:23.370Z,6.70
2019-01-12T15:23:54.750Z,6.70
2019-01-12T15:26:25.961Z,6.70
2019-01-12T15:28:57.291Z,6.70
2019-01-12T15:31:28.614Z,6.70
2019-01-12T15:33:59.831Z,6.70
2019-01-12T15:36:31.114Z,6.70
2019-01-12T15:39:02.370Z,6.80
2019-01-12T15:41:33.611Z,6.70
2019-01-12T15:44:04.993Z,6.70
2019-01-12T15:46:36.228Z,6.70
2019-01-12T15:49:07.694Z,6.70
2019-01-12T15:51:38.929Z,6.70
2019-01-12T15:54:10.202Z,6.70
2019-01-12T15:56:41.480Z,6.70
2019-01-12T15:59:12.820Z,6.70
2019-01-12T16:01:44.038Z,6.70
2019-01-12T16:04:15.320Z,6.60
2019-01-12T16:06:46.479Z,6.60
2019-01-12T16:11:52.819Z,6.50
2019-01-12T16:14:23.979Z,6.50
2019-01-12T16:16:55.146Z,6.50
2019-01-12T16:19:26.388Z,6.60
2019-01-12T16:21:57.626Z,6.60
2019-01-12T16:24:28.784Z,6.70
2019-01-12T16:27:00.291Z,6.70
2019-01-12T16:29:31.519Z,6.80
2019-01-12T16:32:06.075Z,6.80
2019-01-12T16:34:37.358Z,6.90
2019-01-12T16:37:08.613Z,7.00
2019-01-12T16:39:39.774Z,7.10
2019-01-12T16:42:10.973Z,7.10
2019-01-12T16:44:42.268Z,7.10
2019-01-12T16:47:13.489Z,7.10
2019-01-12T16:49:45.460Z,7.10
2019-01-12T16:52:17.197Z,7.10
2019-01-12T16:54:52.291Z,7.10
2019-01-12T16:57:24.727Z,7.20
2019-01-12T17:00:10.246Z,7.10
2019-01-12T17:02:45.253Z,7.10
2019-01-12T17:05:20.114Z,7.00
2019-01-12T17:07:52.176Z,7.00
2019-01-12T17:10:28.408Z,7.00
2019-01-12T17:13:00.464Z,7.10
2019-01-12T17:15:41.843Z,7.10
2019-01-12T17:20:48.885Z,7.10
2019-01-12T17:23:22.043Z,7.10
2019-01-12T17:26:00.741Z,7.10
2019-01-12T17:28:37.221Z,7.10
2019-01-12T17:31:05.045Z,7.10
2019-01-12T17:33:36.563Z,7.00
2019-01-12T17:36:08.593Z,7.00
2019-01-12T17:38:39.817Z,7.00
2019-01-12T17:41:11.051Z,7.00
2019-01-12T17:43:42.485Z,7.00
2019-01-12T17:46:14.251Z,7.00
2019-01-12T17:48:45.503Z,6.90
2019-01-12T17:51:16.948Z,6.90
2019-01-12T17:53:48.386Z,6.90
2019-01-12T17:56:19.808Z,6.90
2019-01-12T17:58:51.794Z,6.90
2019-01-12T18:01:23.076Z,6.90
2019-01-12T18:03:58.316Z,6.90
2019-01-12T18:06:29.613Z,6.90
2019-01-12T18:09:01.825Z,6.90
2019-01-12T18:11:33.071Z,6.90
2019-01-12T18:14:04.742Z,6.90
2019-01-12T18:16:36.023Z,6.90
2019-01-12T18:19:07.164Z,6.90
2019-01-12T18:21:38.463Z,6.90
2019-01-12T18:24:09.677Z,6.90
2019-01-12T18:26:41.218Z,6.80
2019-01-12T18:29:19.249Z,6.80
2019-01-12T18:31:50.533Z,6.80
2019-01-12T18:34:21.781Z,6.80
2019-01-12T18:36:53.052Z,6.70
2019-01-12T18:39:30.621Z,6.70
2019-01-12T18:42:04.752Z,6.70
2019-01-12T18:44:35.964Z,6.70
2019-01-12T18:47:07.373Z,6.70
2019-01-12T18:49:38.677Z,6.70
2019-01-12T18:52:10.050Z,6.70
2019-01-12T18:54:41.306Z,6.70
2019-01-12T18:57:12.546Z,6.80
2019-01-12T18:59:43.809Z,6.80
2019-01-12T19:02:15.114Z,6.80
2019-01-12T19:04:46.361Z,6.80
2019-01-12T19:07:17.579Z,6.80
2019-01-12T19:09:48.902Z,6.80
2019-01-12T19:12:20.233Z,6.70
2019-01-12T19:14:51.510Z,6.70
2019-01-12T19:17:25.951Z,6.60
2019-01-12T19:19:57.272Z,6.60
2019-01-12T19:22:28.616Z,6.60
2019-01-12T19:24:59.929Z,6.60
2019-01-12T19:27:31.174Z,6.50
2019-01-12T19:30:02.463Z,6.50
2019-01-12T19:32:33.701Z,6.40
2019-01-12T19:35:05.233Z,6.40
2019-01-12T19:37:36.534Z,6.40
2019-01-12T19:40:12.610Z,6.40
2019-01-12T19:42:43.879Z,6.50
2019-01-12T19:45:16.593Z,6.50
2019-01-12T19:47:47.869Z,6.50
2019-01-12T19:50:22.685Z,6.50
2019-01-12T19:52:54.052Z,6.40
2019-01-12T19:55:25.414Z,6.40
2019-01-12T19:57:56.681Z,6.40
2019-01-12T20:00:37.348Z,6.40
2019-01-12T20:03:08.608Z,6.40
2019-01-12T20:05:39.851Z,6.30
2019-01-12T20:08:11.130Z,6.30
2019-01-12T20:10:42.429Z,6.20
2019-01-12T20:13:13.650Z,6.20
2019-01-12T20:15:44.868Z,6.20
2019-01-12T20:18:16.086Z,6.20
2019-01-12T20:20:47.347Z,6.20
2019-01-12T20:23:18.550Z,6.20
2019-01-12T20:25:49.818Z,6.20
2019-01-12T20:28:22.691Z,6.20
2019-01-12T20:32:08.579Z,6.20
2019-01-12T20:35:19.888Z,6.20
2019-01-12T20:38:49.632Z,6.20
2019-01-12T20:42:22.419Z,6.30
2019-01-12T20:45:28.729Z,6.40
2019-01-12T20:48:48.796Z,6.30
2019-01-12T20:52:31.684Z,6.40
2019-01-12T20:56:16.940Z,6.50
2019-01-12T20:59:58.782Z,6.50
2019-01-12T21:03:00.713Z,6.50
2019-01-12T21:06:07.449Z,6.50
2019-01-12T21:09:16.988Z,6.50
2019-01-12T21:13:11.700Z,6.50
2019-01-12T21:15:58.182Z,6.50
2019-01-12T21:18:29.435Z,6.50
2019-01-12T21:21:01.055Z,6.60
2019-01-12T21:23:32.473Z,6.60
2019-01-12T21:26:03.784Z,6.50
2019-01-12T21:28:35.126Z,6.60
2019-01-12T21:31:06.382Z,6.60
2019-01-12T21:33:37.728Z,6.50
2019-01-12T21:36:08.879Z,6.50
2019-01-12T21:38:40.207Z,6.50
2019-01-12T21:41:11.452Z,6.40
2019-01-12T21:43:42.688Z,6.30
2019-01-12T21:46:13.962Z,6.40
2019-01-12T21:48:45.292Z,6.40
2019-01-12T21:51:16.530Z,6.40
2019-01-12T21:53:47.818Z,6.40
2019-01-12T21:56:19.007Z,6.50
2019-01-12T21:58:54.631Z,6.50
2019-01-12T22:01:25.900Z,6.50
2019-01-12T22:03:57.172Z,6.60
2019-01-12T22:06:28.430Z,6.60
2019-01-12T22:08:59.714Z,6.70
2019-01-12T22:11:30.823Z,6.70
2019-01-12T22:14:02.351Z,6.70
2019-01-12T22:16:33.516Z,6.70
2019-01-12T22:19:04.806Z,6.70
2019-01-12T22:21:36.119Z,6.70
2019-01-12T22:24:07.470Z,6.70
2019-01-12T22:26:38.780Z,6.70
2019-01-12T22:29:10.058Z,6.70
2019-01-12T22:31:41.355Z,6.70
2019-01-12T22:34:12.537Z,6.80
2019-01-12T22:36:43.832Z,6.70
2019-01-12T22:39:15.118Z,6.70
2019-01-12T22:41:46.354Z,6.70
2019-01-12T22:44:17.688Z,6.60
2019-01-12T22:46:48.951Z,6.60
2019-01-12T22:49:20.143Z,6.60
2019-01-12T22:51:51.391Z,6.60
2019-01-12T22:54:22.559Z,6.60
2019-01-12T22:56:53.922Z,6.60
2019-01-12T22:59:25.274Z,6.60
2019-01-12T23:02:09.368Z,6.60
2019-01-12T23:04:40.639Z,6.60
2019-01-12T23:07:12.235Z,6.60
2019-01-12T23:09:43.697Z,6.60
2019-01-12T23:12:15.045Z,6.60
2019-01-12T23:14:46.400Z,6.60
2019-01-12T23:17:17.797Z,6.60
2019-01-12T23:19:49.197Z,6.60
2019-01-12T23:22:20.391Z,6.60
2019-01-12T23:24:51.656Z,6.70
2019-01-12T23:27:22.919Z,6.70
2019-01-12T23:29:54.123Z,6.70
2019-01-12T23:32:25.424Z,6.60
2019-01-12T23:34:56.672Z,6.60
2019-01-12T23:37:28.917Z,6.50
2019-01-12T23:40:00.244Z,6.60
2019-01-12T23:42:31.578Z,6.60
2019-01-12T23:45:02.890Z,6.70
2019-01-12T23:47:34.259Z,6.60
2019-01-12T23:50:06.048Z,6.70
2019-01-12T23:52:37.362Z,6.70
2019-01-12T23:55:09.701Z,6.70
2019-01-12T23:57:41.411Z,6.70
